KAVX/AVX METAR and TAF weather

Enter ICAO airport designator
Station Type Date Time Source
KAVX METAR 2021/05/12 23:51 UTC NOAA

KAVX 122351Z AUTO 22008KT 7SM BKN004 15/11 A3003 RMK AO2 SLP161 T01500111 10183 20144 56006


Station Type Date Time Source
KAVX Decoded METAR 2021/05/12 23:51 UTC NOAA

AVALON CATALINA AIRPORT, CA, United States (KAVX) 33-24N 118-25W 482M
May 12, 2021 - 07:51 PM EDT / 2021.05.12 2351 UTC
Wind: from the SW (220 degrees) at 9 MPH (8 KT):0
Visibility: 7 mile(s):0
Sky conditions: mostly cloudy
Temperature: 59.0 F (15.0 C)
Dew Point: 52.0 F (11.1 C)
Relative Humidity: 77%
Pressure (altimeter): 30.03 in. Hg (1016 hPa)
Pressure tendency: 0.02 inches (0.6 hPa) lower than three hours ago
ob: KAVX 122351Z AUTO 22008KT 7SM BKN004 15/11 A3003 RMK AO2 SLP161 T01500111 10183 20144 56006
cycle: 0

Station Type Date Time Source
KAVX TAF UTC NOAA

Error!

Example: see airport list